Toluca, Illinois
Current Conditions -  °F | °C
As of 4:35 PM on Sunday 23 Nov 2014 (Local Time) from KC75 Reporting Station
Light Rain Light Rain  
Wind Chill: 46°   Ceiling: 2300
Heat Index: 49°   Visibility: 7mi
Dew Point: 48°   Wind: 8mph
Humidity: 94%   Direction: 150°SSE
Pressure: 29.36"   Gusts: NA
Location:  41°N, 89.13°W
Report Text: KC75 232235Z AUTO 15007KT 7SM -RA SCT010 BKN023 OVC039 10/09 A2936 RMK AO2 P0004 T00970088
Loading
Personal Weather Stations






























Interactive Weather Map New forecast layout! Learn more

10-Day Weather Forecast

Advertisements
Track Severe Weather on mobile